createdAt,value
2022-12-26T00:01:16.164Z,100408.19
2022-12-26T00:04:05.127Z,100409.66
2022-12-26T00:06:45.403Z,100412.47
2022-12-26T00:09:14.610Z,100417.56
2022-12-26T00:11:47.089Z,100420.09
2022-12-26T00:14:21.610Z,100415.78
2022-12-26T00:16:52.869Z,100419.25
2022-12-26T00:19:30.703Z,100432.53
2022-12-26T00:22:00.386Z,100427.19
2022-12-26T00:24:31.615Z,100429.75
2022-12-26T00:27:02.270Z,100434.34
2022-12-26T00:29:30.892Z,100441.31
2022-12-26T00:32:02.260Z,100445.75
2022-12-26T00:34:36.901Z,100445.69
2022-12-26T00:37:05.343Z,100450.97
2022-12-26T00:39:46.946Z,100463.91
2022-12-26T00:42:15.603Z,100457.06
2022-12-26T00:45:00.646Z,100471.00
2022-12-26T00:47:30.817Z,100475.38
2022-12-26T00:50:12.274Z,100472.13
2022-12-26T00:52:51.891Z,100489.44
2022-12-26T00:55:25.531Z,100487.81
2022-12-26T00:58:01.171Z,100499.13
2022-12-26T01:00:31.969Z,100493.91
2022-12-26T01:03:03.263Z,100506.16
2022-12-26T01:05:33.055Z,100502.63
2022-12-26T01:08:21.682Z,100515.41
2022-12-26T01:10:51.367Z,100527.50
2022-12-26T01:13:32.291Z,100541.50
2022-12-26T01:16:02.636Z,100547.50
2022-12-26T01:18:34.831Z,100546.56
2022-12-26T01:21:08.514Z,100551.78
2022-12-26T01:23:38.322Z,100562.19
2022-12-26T01:26:18.300Z,100559.47
2022-12-26T01:28:58.754Z,100558.59
2022-12-26T01:31:32.587Z,100564.59
2022-12-26T01:34:03.833Z,100560.97
2022-12-26T01:36:34.630Z,100565.25
2022-12-26T01:39:04.265Z,100573.00
2022-12-26T01:41:33.853Z,100574.72
2022-12-26T01:44:06.309Z,100583.22
2022-12-26T01:46:40.042Z,100581.41
2022-12-26T01:49:17.686Z,100597.94
2022-12-26T01:52:04.894Z,100602.16
2022-12-26T01:54:46.781Z,100605.69
2022-12-26T01:57:21.041Z,100604.78
2022-12-26T01:59:54.123Z,100602.09
2022-12-26T02:02:27.595Z,100615.13
2022-12-26T02:05:17.574Z,100618.44
2022-12-26T02:07:53.313Z,100620.94
2022-12-26T02:10:25.962Z,100631.34
2022-12-26T02:12:57.364Z,100643.38
2022-12-26T02:15:25.879Z,100641.69
2022-12-26T02:17:54.589Z,100640.72
2022-12-26T02:20:28.625Z,100638.91
2022-12-26T02:23:31.869Z,100640.66
2022-12-26T02:26:30.528Z,100658.13
2022-12-26T02:29:34.463Z,100658.16
2022-12-26T02:32:32.813Z,100674.97
2022-12-26T02:35:13.117Z,100670.53
2022-12-26T02:37:56.031Z,100681.22
2022-12-26T02:40:42.987Z,100676.19
2022-12-26T02:43:22.786Z,100686.69
2022-12-26T02:46:22.254Z,100693.63
2022-12-26T02:49:00.239Z,100685.88
2022-12-26T02:52:11.582Z,100697.97
2022-12-26T02:55:05.951Z,100694.72
2022-12-26T02:57:56.374Z,100693.09
2022-12-26T03:00:52.461Z,100701.94
2022-12-26T03:03:45.434Z,100690.03
2022-12-26T03:06:37.929Z,100697.09
2022-12-26T03:09:27.248Z,100691.94
2022-12-26T03:12:19.534Z,100692.06
2022-12-26T03:14:58.042Z,100702.66
2022-12-26T03:17:40.698Z,100705.28
2022-12-26T03:20:14.133Z,100702.84
2022-12-26T03:22:48.854Z,100708.16
2022-12-26T03:25:39.021Z,100704.78
2022-12-26T03:28:09.348Z,100704.63
2022-12-26T03:30:52.355Z,100708.22
2022-12-26T03:33:44.133Z,100705.72
2022-12-26T03:36:17.407Z,100701.44
2022-12-26T03:39:10.145Z,100691.19
2022-12-26T03:42:02.045Z,100695.59
2022-12-26T03:45:06.003Z,100692.22
2022-12-26T03:47:59.903Z,100691.38
2022-12-26T03:50:54.864Z,100699.19
2022-12-26T03:53:50.696Z,100691.31
2022-12-26T03:56:54.052Z,100694.88
2022-12-26T03:59:50.263Z,100697.41
2022-12-26T04:02:49.123Z,100703.47
2022-12-26T04:05:37.223Z,100700.78
2022-12-26T04:08:29.908Z,100698.03
2022-12-26T04:11:20.485Z,100703.84
2022-12-26T04:14:19.938Z,100714.19
2022-12-26T04:17:27.346Z,100719.56
2022-12-26T04:20:05.275Z,100723.88
2022-12-26T04:23:03.074Z,100715.09
2022-12-26T04:25:53.936Z,100717.72
2022-12-26T04:28:41.903Z,100723.09
2022-12-26T04:31:36.412Z,100725.75
2022-12-26T04:34:28.131Z,100714.53
2022-12-26T04:37:19.329Z,100715.47
2022-12-26T04:40:10.085Z,100731.00
2022-12-26T04:42:57.267Z,100728.41
2022-12-26T04:45:35.917Z,100723.19
2022-12-26T04:48:31.093Z,100733.44
2022-12-26T04:50:59.664Z,100722.19
2022-12-26T04:53:29.418Z,100732.56
2022-12-26T04:56:02.198Z,100732.22
2022-12-26T04:58:33.124Z,100730.47
2022-12-26T05:01:22.587Z,100738.47
2022-12-26T05:04:25.488Z,100743.56
2022-12-26T05:07:11.712Z,100736.66
2022-12-26T05:09:41.453Z,100735.84
2022-12-26T05:12:19.047Z,100744.50
2022-12-26T05:14:49.634Z,100734.72
2022-12-26T05:17:38.742Z,100732.31
2022-12-26T05:20:46.061Z,100728.19
2022-12-26T05:23:38.402Z,100736.00
2022-12-26T05:26:35.568Z,100745.59
2022-12-26T05:29:12.194Z,100747.41
2022-12-26T05:31:42.083Z,100751.66
2022-12-26T05:34:21.081Z,100755.22
2022-12-26T05:36:54.569Z,100751.72
2022-12-26T05:39:25.078Z,100759.53
2022-12-26T05:41:55.965Z,100761.28
2022-12-26T05:44:24.742Z,100755.16
2022-12-26T05:46:53.475Z,100757.53
2022-12-26T05:49:23.915Z,100760.13
2022-12-26T05:51:55.082Z,100771.34
2022-12-26T05:54:34.786Z,100768.63
2022-12-26T05:57:04.502Z,100774.69
2022-12-26T05:59:36.701Z,100766.81
2022-12-26T06:02:05.427Z,100776.28
2022-12-26T06:04:35.081Z,100778.81
2022-12-26T06:07:05.172Z,100780.56
2022-12-26T06:09:33.838Z,100770.75
2022-12-26T06:12:09.734Z,100776.13
2022-12-26T06:14:42.486Z,100769.25
2022-12-26T06:17:12.214Z,100785.53
2022-12-26T06:19:46.720Z,100777.66
2022-12-26T06:22:32.475Z,100784.75
2022-12-26T06:25:01.505Z,100800.22
2022-12-26T06:27:36.993Z,100786.34
2022-12-26T06:30:06.545Z,100794.91
2022-12-26T06:32:36.857Z,100788.03
2022-12-26T06:35:05.697Z,100800.19
2022-12-26T06:37:43.760Z,100789.66
2022-12-26T06:40:13.594Z,100798.38
2022-12-26T06:42:42.271Z,100795.84
2022-12-26T06:45:13.365Z,100788.88
2022-12-26T06:47:41.700Z,100790.38
2022-12-26T06:50:11.301Z,100792.22
2022-12-26T06:52:42.818Z,100805.16
2022-12-26T06:55:14.668Z,100808.69
2022-12-26T06:57:49.363Z,100819.75
2022-12-26T07:00:19.379Z,100811.84
2022-12-26T07:02:53.248Z,100809.19
2022-12-26T07:05:21.644Z,100826.50
2022-12-26T07:07:54.683Z,100822.97
2022-12-26T07:10:30.781Z,100827.22
2022-12-26T07:13:00.355Z,100828.97
2022-12-26T07:15:30.146Z,100842.00
2022-12-26T07:18:01.724Z,100828.06
2022-12-26T07:20:32.152Z,100828.06
2022-12-26T07:23:07.470Z,100837.66
2022-12-26T07:25:39.017Z,100829.91
2022-12-26T07:28:07.623Z,100834.41
2022-12-26T07:30:38.325Z,100839.50
2022-12-26T07:33:10.171Z,100835.28
2022-12-26T07:35:38.945Z,100861.41
2022-12-26T07:38:10.933Z,100843.25
2022-12-26T07:40:41.024Z,100845.00
2022-12-26T07:43:11.691Z,100850.16
2022-12-26T07:45:45.353Z,100847.94
2022-12-26T07:48:14.713Z,100849.75
2022-12-26T07:50:47.853Z,100850.72
2022-12-26T07:53:19.421Z,100851.63
2022-12-26T07:55:50.532Z,100851.59
2022-12-26T07:58:24.344Z,100860.41
2022-12-26T08:00:54.250Z,100876.75
2022-12-26T08:03:23.373Z,100862.72
2022-12-26T08:05:52.941Z,100862.69
2022-12-26T08:08:30.350Z,100866.97
2022-12-26T08:11:07.464Z,100861.69
2022-12-26T08:13:36.847Z,100864.53
2022-12-26T08:16:10.571Z,100870.53
2022-12-26T08:18:57.208Z,100884.44
2022-12-26T08:21:33.387Z,100879.91
2022-12-26T08:24:05.701Z,100874.53
2022-12-26T08:26:34.955Z,100895.22
2022-12-26T08:29:03.576Z,100887.97
2022-12-26T08:31:38.745Z,100884.34
2022-12-26T08:34:08.475Z,100889.50
2022-12-26T08:36:37.693Z,100898.13
2022-12-26T08:39:08.378Z,100886.69
2022-12-26T08:41:37.166Z,100889.09
2022-12-26T08:46:54.517Z,100895.03
2022-12-26T08:49:25.209Z,100888.06
2022-12-26T08:51:58.701Z,100895.16
2022-12-26T08:54:31.648Z,100888.13
2022-12-26T08:57:03.086Z,100899.38
2022-12-26T08:59:38.745Z,100892.50
2022-12-26T09:02:07.796Z,100899.09
2022-12-26T09:04:36.971Z,100902.50
2022-12-26T09:07:05.800Z,100898.94
2022-12-26T09:09:37.673Z,100897.09
2022-12-26T09:12:06.864Z,100898.75
2022-12-26T09:14:36.261Z,100901.84
2022-12-26T09:17:04.799Z,100909.59
2022-12-26T09:19:34.119Z,100916.41
2022-12-26T09:22:20.088Z,100912.47
2022-12-26T09:24:50.867Z,100920.41
2022-12-26T09:27:19.799Z,100909.69
2022-12-26T09:29:50.785Z,100927.13
2022-12-26T09:32:19.222Z,100926.06
2022-12-26T09:34:50.476Z,100935.41
2022-12-26T09:37:19.295Z,100937.94
2022-12-26T09:40:05.805Z,100944.66
2022-12-26T09:42:44.594Z,100946.06
2022-12-26T09:45:17.958Z,100940.34
2022-12-26T09:47:59.661Z,100942.59
2022-12-26T09:50:37.102Z,100954.22
2022-12-26T09:53:15.972Z,100937.34
2022-12-26T09:55:52.479Z,100944.13
2022-12-26T09:58:28.272Z,100995.06
2022-12-26T10:01:10.004Z,100955.06
2022-12-26T10:03:42.330Z,100946.69
2022-12-26T10:06:19.435Z,100953.78
2022-12-26T10:09:10.924Z,100961.41
2022-12-26T10:11:59.416Z,100957.03
2022-12-26T10:14:40.702Z,100976.16
2022-12-26T10:17:18.079Z,100963.00
2022-12-26T10:20:09.842Z,100967.19
2022-12-26T10:23:00.483Z,100980.88
2022-12-26T10:25:38.372Z,100985.91
2022-12-26T10:28:18.818Z,100981.25
2022-12-26T10:30:51.732Z,100981.06
2022-12-26T10:33:32.556Z,100979.94
2022-12-26T10:36:01.342Z,100977.16
2022-12-26T10:38:37.442Z,100982.09
2022-12-26T10:41:14.209Z,100991.31
2022-12-26T10:43:45.814Z,100995.56
2022-12-26T10:46:40.280Z,100997.84
2022-12-26T10:49:12.937Z,100996.59
2022-12-26T10:51:42.569Z,100991.25
2022-12-26T10:54:18.107Z,100987.63
2022-12-26T10:56:50.918Z,100984.72
2022-12-26T10:59:23.617Z,100989.56
2022-12-26T11:01:52.519Z,101019.00
2022-12-26T11:04:53.147Z,100983.16
2022-12-26T11:07:19.312Z,100977.00
2022-12-26T11:09:56.284Z,100977.53
2022-12-26T11:12:32.154Z,100983.09
2022-12-26T11:15:06.219Z,100994.00
2022-12-26T11:18:09.710Z,100977.19
2022-12-26T11:20:40.727Z,100987.78
2022-12-26T11:23:31.913Z,100989.56
2022-12-26T11:26:03.570Z,100995.56
2022-12-26T11:28:38.326Z,100993.75
2022-12-26T11:31:27.157Z,100983.28
2022-12-26T11:34:02.769Z,100978.81
2022-12-26T11:36:40.907Z,100972.94
2022-12-26T11:39:33.587Z,100982.19
2022-12-26T11:42:11.436Z,100983.84
2022-12-26T11:44:45.736Z,100988.84
2022-12-26T11:47:18.435Z,100980.09
2022-12-26T11:49:53.690Z,100987.66
2022-12-26T11:52:40.327Z,100990.13
2022-12-26T11:55:33.319Z,100990.00
2022-12-26T11:58:06.501Z,100996.41
2022-12-26T12:00:38.785Z,100978.97
2022-12-26T12:03:19.143Z,100989.34
2022-12-26T12:05:55.948Z,100988.00
2022-12-26T12:08:36.804Z,101009.00
2022-12-26T12:11:23.817Z,101007.28
2022-12-26T12:14:15.575Z,100997.03
2022-12-26T12:16:55.674Z,100989.59
2022-12-26T12:19:33.936Z,101008.19
2022-12-26T12:22:23.259Z,100992.22
2022-12-26T12:25:07.603Z,101013.84
2022-12-26T12:27:48.038Z,101000.41
2022-12-26T12:30:28.066Z,101007.06
2022-12-26T12:33:30.146Z,100990.28
2022-12-26T12:36:10.092Z,101006.75
2022-12-26T12:38:54.906Z,101003.22
2022-12-26T12:41:57.178Z,100986.81
2022-12-26T12:44:35.988Z,101016.59
2022-12-26T12:47:14.894Z,101015.00
2022-12-26T12:49:55.194Z,101006.66
2022-12-26T12:52:38.879Z,101010.31
2022-12-26T12:55:32.072Z,101005.25
2022-12-26T12:58:09.788Z,101003.78
2022-12-26T13:00:44.554Z,101002.28
2022-12-26T13:03:20.677Z,101006.63
2022-12-26T13:05:56.418Z,101000.41
2022-12-26T13:08:34.113Z,101000.66
2022-12-26T13:11:08.956Z,101007.03
2022-12-26T13:13:42.023Z,101001.59
2022-12-26T13:16:15.765Z,101001.03
2022-12-26T13:18:51.722Z,101005.69
2022-12-26T13:21:20.850Z,100999.97
2022-12-26T13:24:14.427Z,100994.41
2022-12-26T13:26:47.109Z,101018.81
2022-12-26T13:29:20.044Z,101001.34
2022-12-26T13:31:48.895Z,101007.50
2022-12-26T13:34:19.717Z,101006.66
2022-12-26T13:36:50.237Z,101000.19
2022-12-26T13:39:39.708Z,101003.81
2022-12-26T13:42:48.149Z,101011.88
2022-12-26T13:45:50.506Z,101011.25
2022-12-26T13:48:57.986Z,101023.28
2022-12-26T13:51:58.231Z,101020.16
2022-12-26T13:54:29.033Z,101041.78
2022-12-26T13:57:37.539Z,101028.69
2022-12-26T14:00:17.946Z,101029.75
2022-12-26T14:03:24.876Z,101019.59
2022-12-26T14:06:15.700Z,101019.84
2022-12-26T14:08:58.698Z,101027.56
2022-12-26T14:11:58.856Z,101018.03
2022-12-26T14:14:54.550Z,101024.06
2022-12-26T14:17:40.649Z,101031.06
2022-12-26T14:20:25.823Z,101031.06
2022-12-26T14:23:06.183Z,101033.38
2022-12-26T14:25:50.920Z,101028.91
2022-12-26T14:28:29.502Z,101046.41
2022-12-26T14:31:22.392Z,101052.25
2022-12-26T14:34:03.003Z,101030.16
2022-12-26T14:36:48.692Z,101040.34
2022-12-26T14:39:28.888Z,101042.56
2022-12-26T14:42:35.885Z,101043.06
2022-12-26T14:45:13.779Z,101078.03
2022-12-26T14:47:46.685Z,101075.31
2022-12-26T14:50:44.304Z,101062.50
2022-12-26T14:53:35.767Z,101078.50
2022-12-26T14:56:34.945Z,101077.25
2022-12-26T14:59:26.703Z,101098.94
2022-12-26T15:02:26.239Z,101070.34
2022-12-26T15:05:07.340Z,101070.53
2022-12-26T15:08:15.832Z,101074.63
2022-12-26T15:11:23.520Z,101075.75
2022-12-26T15:14:44.496Z,101096.19
2022-12-26T15:17:22.859Z,101094.59
2022-12-26T15:20:23.171Z,101097.31
2022-12-26T15:23:24.214Z,101100.13
2022-12-26T15:26:37.742Z,101100.88
2022-12-26T15:29:47.349Z,101096.59
2022-12-26T15:32:22.632Z,101106.03
2022-12-26T15:35:05.282Z,101104.34
2022-12-26T15:37:54.138Z,101106.84
2022-12-26T15:40:26.061Z,101111.28
2022-12-26T15:43:19.390Z,101114.94
2022-12-26T15:45:53.084Z,101123.97
2022-12-26T15:48:36.524Z,101124.81
2022-12-26T15:51:11.460Z,101130.06
2022-12-26T15:53:56.686Z,101133.59
2022-12-26T15:56:50.413Z,101131.31
2022-12-26T16:00:26.598Z,101148.13
2022-12-26T16:03:29.745Z,101150.19
2022-12-26T16:06:09.898Z,101142.66
2022-12-26T16:08:56.027Z,101154.22
2022-12-26T16:11:30.693Z,101156.19
2022-12-26T16:14:01.615Z,101150.22
2022-12-26T16:16:35.624Z,101154.69
2022-12-26T16:19:19.170Z,101151.47
2022-12-26T16:22:09.061Z,101158.59
2022-12-26T16:24:40.450Z,101149.09
2022-12-26T16:27:11.021Z,101158.78
2022-12-26T16:29:49.032Z,101166.00
2022-12-26T16:32:22.673Z,101159.16
2022-12-26T16:34:53.123Z,101168.78
2022-12-26T16:37:27.704Z,101170.84
2022-12-26T16:40:18.257Z,101175.19
2022-12-26T16:42:57.613Z,101186.59
2022-12-26T16:45:27.542Z,101186.72
2022-12-26T16:47:58.402Z,101187.59
2022-12-26T16:50:29.673Z,101192.66
2022-12-26T16:53:14.016Z,101190.88
2022-12-26T16:55:46.698Z,101203.19
2022-12-26T16:58:23.742Z,101210.16
2022-12-26T17:01:01.180Z,101218.09
2022-12-26T17:03:38.950Z,101227.78
2022-12-26T17:06:10.922Z,101223.63
2022-12-26T17:08:48.917Z,101230.66
2022-12-26T17:11:18.833Z,101230.78
2022-12-26T17:13:54.452Z,101243.72
2022-12-26T17:16:26.381Z,101242.06
2022-12-26T17:19:09.746Z,101236.97
2022-12-26T17:21:38.274Z,101241.34
2022-12-26T17:24:29.417Z,101252.81
2022-12-26T17:27:18.696Z,101247.59
2022-12-26T17:29:54.300Z,101254.63
2022-12-26T17:32:37.823Z,101259.00
2022-12-26T17:35:16.575Z,101266.16
2022-12-26T17:37:47.881Z,101271.38
2022-12-26T17:40:29.401Z,101271.09
2022-12-26T17:43:08.078Z,101275.47
2022-12-26T17:45:40.087Z,101284.00
2022-12-26T17:48:14.321Z,101286.41
2022-12-26T17:50:47.250Z,101286.91
2022-12-26T17:53:29.853Z,101283.50
2022-12-26T17:56:02.190Z,101313.13
2022-12-26T17:58:33.663Z,101295.00
2022-12-26T18:01:04.930Z,101294.13
2022-12-26T18:03:34.918Z,101288.38
2022-12-26T18:06:17.453Z,101295.50
2022-12-26T18:08:47.007Z,101298.97
2022-12-26T18:11:20.491Z,101290.31
2022-12-26T18:13:49.462Z,101298.03
2022-12-26T18:16:25.747Z,101318.09
2022-12-26T18:18:55.816Z,101311.16
2022-12-26T18:21:30.664Z,101312.19
2022-12-26T18:24:06.529Z,101319.16
2022-12-26T18:26:37.196Z,101322.72
2022-12-26T18:29:10.994Z,101325.41
2022-12-26T18:31:40.911Z,101321.81
2022-12-26T18:34:20.152Z,101334.09
2022-12-26T18:36:55.785Z,101332.25
2022-12-26T18:39:32.798Z,101340.03
2022-12-26T18:42:14.824Z,101341.56
2022-12-26T18:44:44.444Z,101338.16
2022-12-26T18:47:16.160Z,101349.34
2022-12-26T18:49:45.668Z,101344.03
2022-12-26T18:52:21.768Z,101355.47
2022-12-26T18:54:56.233Z,101349.41
2022-12-26T18:57:24.628Z,101368.59
2022-12-26T18:59:53.360Z,101366.03
2022-12-26T19:02:23.217Z,101360.78
2022-12-26T19:05:01.600Z,101371.47
2022-12-26T19:07:33.443Z,101364.66
2022-12-26T19:10:03.634Z,101362.13
2022-12-26T19:12:33.153Z,101363.13
2022-12-26T19:15:02.656Z,101364.81
2022-12-26T19:17:32.235Z,101371.03
2022-12-26T19:20:01.952Z,101378.94
2022-12-26T19:22:33.053Z,101380.53
2022-12-26T19:25:01.880Z,101391.28
2022-12-26T19:27:30.540Z,101397.34
2022-12-26T19:29:59.413Z,101401.19
2022-12-26T19:32:28.072Z,101402.19
2022-12-26T19:34:58.017Z,101397.19
2022-12-26T19:37:29.575Z,101399.03
2022-12-26T19:40:03.068Z,101416.25
2022-12-26T19:42:34.860Z,101392.78
2022-12-26T19:45:07.493Z,101395.59
2022-12-26T19:47:38.896Z,101400.16
2022-12-26T19:50:11.841Z,101393.19
2022-12-26T19:52:41.623Z,101396.81
2022-12-26T19:55:13.896Z,101400.41
2022-12-26T19:57:42.697Z,101416.84
2022-12-26T20:00:14.364Z,101414.38
2022-12-26T20:02:43.720Z,101415.13
2022-12-26T20:05:13.787Z,101416.91
2022-12-26T20:07:50.745Z,101418.72
2022-12-26T20:10:20.872Z,101418.66
2022-12-26T20:12:50.516Z,101417.03
2022-12-26T20:15:26.422Z,101426.53
2022-12-26T20:17:56.699Z,101411.59
2022-12-26T20:20:29.052Z,101422.91
2022-12-26T20:22:59.103Z,101408.38
2022-12-26T20:25:36.801Z,101423.06
2022-12-26T20:28:06.469Z,101420.44
2022-12-26T20:30:35.014Z,101412.63
2022-12-26T20:33:03.847Z,101421.22
2022-12-26T20:35:32.552Z,101422.97
2022-12-26T20:38:02.407Z,101422.06
2022-12-26T20:40:34.131Z,101427.28
2022-12-26T20:43:02.856Z,101429.16
2022-12-26T20:45:31.498Z,101440.38
2022-12-26T20:48:01.157Z,101441.41
2022-12-26T20:50:34.454Z,101437.00
2022-12-26T20:53:03.324Z,101450.16
2022-12-26T20:55:37.846Z,101455.66
2022-12-26T20:58:06.736Z,101451.22
2022-12-26T21:00:49.734Z,101455.81
2022-12-26T21:03:24.738Z,101456.53
2022-12-26T21:05:53.418Z,101466.06
2022-12-26T21:08:23.238Z,101453.25
2022-12-26T21:10:54.246Z,101453.22
2022-12-26T21:13:23.053Z,101445.38
2022-12-26T21:15:52.905Z,101437.63
2022-12-26T21:18:21.656Z,101447.38
2022-12-26T21:20:50.712Z,101448.13
2022-12-26T21:23:19.404Z,101451.69
2022-12-26T21:25:49.563Z,101448.28
2022-12-26T21:28:19.985Z,101450.78
2022-12-26T21:30:56.545Z,101452.56
2022-12-26T21:33:25.413Z,101456.09
2022-12-26T21:36:00.181Z,101452.56
2022-12-26T21:38:32.263Z,101468.13
2022-12-26T21:41:05.304Z,101468.13
2022-12-26T21:43:36.340Z,101472.38
2022-12-26T21:46:10.433Z,101468.91
2022-12-26T21:48:47.561Z,101478.38
2022-12-26T21:51:18.236Z,101478.38
2022-12-26T21:53:47.910Z,101469.81
2022-12-26T21:56:19.207Z,101477.56
2022-12-26T21:59:12.780Z,101471.38
2022-12-26T22:01:41.770Z,101482.72
2022-12-26T22:04:21.565Z,101480.94
2022-12-26T22:06:53.171Z,101476.78
2022-12-26T22:09:21.970Z,101472.50
2022-12-26T22:12:10.418Z,101472.59
2022-12-26T22:14:42.679Z,101479.41
2022-12-26T22:17:12.422Z,101478.75
2022-12-26T22:19:43.152Z,101477.94
2022-12-26T22:22:13.248Z,101478.78
2022-12-26T22:24:43.953Z,101478.13
2022-12-26T22:27:13.385Z,101483.41
2022-12-26T22:29:43.495Z,101472.91
2022-12-26T22:32:12.730Z,101480.72
2022-12-26T22:34:41.761Z,101475.50
2022-12-26T22:37:10.372Z,101481.44
2022-12-26T22:39:39.092Z,101476.38
2022-12-26T22:42:17.037Z,101475.56
2022-12-26T22:44:49.536Z,101486.06
2022-12-26T22:47:18.632Z,101487.81
2022-12-26T22:49:48.384Z,101494.75
2022-12-26T22:52:17.570Z,101485.44
2022-12-26T22:54:47.266Z,101483.78
2022-12-26T22:57:23.987Z,101486.47
2022-12-26T23:00:08.259Z,101483.94
2022-12-26T23:02:38.540Z,101485.59
2022-12-26T23:05:10.466Z,101480.34
2022-12-26T23:07:41.030Z,101494.94
2022-12-26T23:10:19.685Z,101500.13
2022-12-26T23:12:53.611Z,101493.81
2022-12-26T23:15:27.333Z,101500.53
2022-12-26T23:18:21.356Z,101497.94
2022-12-26T23:21:07.573Z,101496.16
2022-12-26T23:23:38.057Z,101500.59
2022-12-26T23:26:06.639Z,101496.31
2022-12-26T23:28:52.690Z,101498.16
2022-12-26T23:31:22.745Z,101496.44
2022-12-26T23:33:52.692Z,101501.84
2022-12-26T23:36:28.505Z,101502.75
2022-12-26T23:38:58.280Z,101497.72
2022-12-26T23:41:30.039Z,101503.78
2022-12-26T23:43:59.130Z,101499.53
2022-12-26T23:46:30.781Z,101507.31
2022-12-26T23:49:00.598Z,101504.63
2022-12-26T23:51:31.717Z,101511.47
2022-12-26T23:54:32.334Z,101507.00
